sensor_id;sensor_type;location;lat;lon;timestamp;temperature;humidity
37460;DHT22;23318;50.966;5.284;2023-08-21T00:01:36;21.60;99.90
37460;DHT22;23318;50.966;5.284;2023-08-21T00:04:02;21.40;99.90
37460;DHT22;23318;50.966;5.284;2023-08-21T00:06:28;21.30;99.90
37460;DHT22;23318;50.966;5.284;2023-08-21T00:08:54;21.20;99.90
37460;DHT22;23318;50.966;5.284;2023-08-21T00:11:19;21.20;99.90
37460;DHT22;23318;50.966;5.284;2023-08-21T00:13:45;21.00;99.90
37460;DHT22;23318;50.966;5.284;2023-08-21T00:16:13;21.10;99.90
37460;DHT22;23318;50.966;5.284;2023-08-21T00:18:39;21.10;99.90
37460;DHT22;23318;50.966;5.284;2023-08-21T00:21:04;21.20;99.90
37460;DHT22;23318;50.966;5.284;2023-08-21T00:23:30;21.20;99.90
37460;DHT22;23318;50.966;5.284;2023-08-21T00:25:56;21.10;99.90
37460;DHT22;23318;50.966;5.284;2023-08-21T00:28:22;21.20;99.90
37460;DHT22;23318;50.966;5.284;2023-08-21T00:30:48;21.30;99.90
37460;DHT22;23318;50.966;5.284;2023-08-21T00:33:13;21.30;99.90
37460;DHT22;23318;50.966;5.284;2023-08-21T00:35:39;21.40;99.90
37460;DHT22;23318;50.966;5.284;2023-08-21T00:38:07;21.30;99.90
37460;DHT22;23318;50.966;5.284;2023-08-21T00:40:33;21.20;99.90
37460;DHT22;23318;50.966;5.284;2023-08-21T00:42:58;20.80;99.90
37460;DHT22;23318;50.966;5.284;2023-08-21T00:45:24;20.90;99.90
37460;DHT22;23318;50.966;5.284;2023-08-21T00:47:50;20.90;99.90
37460;DHT22;23318;50.966;5.284;2023-08-21T00:50:16;21.00;99.90
37460;DHT22;23318;50.966;5.284;2023-08-21T00:52:44;21.20;99.90
37460;DHT22;23318;50.966;5.284;2023-08-21T00:55:11;21.30;99.90
37460;DHT22;23318;50.966;5.284;2023-08-21T00:57:38;21.20;99.90
37460;DHT22;23318;50.966;5.284;2023-08-21T01:00:05;21.20;99.90
37460;DHT22;23318;50.966;5.284;2023-08-21T01:02:31;21.20;99.90
37460;DHT22;23318;50.966;5.284;2023-08-21T01:04:57;21.20;99.90
37460;DHT22;23318;50.966;5.284;2023-08-21T01:07:22;21.10;99.90
37460;DHT22;23318;50.966;5.284;2023-08-21T01:12:35;21.00;99.90
37460;DHT22;23318;50.966;5.284;2023-08-21T01:15:06;21.00;99.90
37460;DHT22;23318;50.966;5.284;2023-08-21T01:17:37;20.90;99.90
37460;DHT22;23318;50.966;5.284;2023-08-21T01:20:05;20.90;99.90
37460;DHT22;23318;50.966;5.284;2023-08-21T01:22:37;20.90;99.90
37460;DHT22;23318;50.966;5.284;2023-08-21T01:25:07;20.90;99.90
37460;DHT22;23318;50.966;5.284;2023-08-21T01:27:33;20.90;99.90
37460;DHT22;23318;50.966;5.284;2023-08-21T01:30:01;20.90;99.90
37460;DHT22;23318;50.966;5.284;2023-08-21T01:32:55;20.80;99.90
37460;DHT22;23318;50.966;5.284;2023-08-21T01:35:25;20.70;99.90
37460;DHT22;23318;50.966;5.284;2023-08-21T01:37:51;20.70;99.90
37460;DHT22;23318;50.966;5.284;2023-08-21T01:40:24;20.60;99.90
37460;DHT22;23318;50.966;5.284;2023-08-21T01:42:50;20.50;99.90
37460;DHT22;23318;50.966;5.284;2023-08-21T01:45:17;20.40;99.90
37460;DHT22;23318;50.966;5.284;2023-08-21T01:47:43;20.40;99.90
37460;DHT22;23318;50.966;5.284;2023-08-21T01:50:09;20.40;99.90
37460;DHT22;23318;50.966;5.284;2023-08-21T01:52:34;20.40;99.90
37460;DHT22;23318;50.966;5.284;2023-08-21T01:55:00;20.30;99.90
37460;DHT22;23318;50.966;5.284;2023-08-21T01:57:26;20.40;99.90
37460;DHT22;23318;50.966;5.284;2023-08-21T01:59:51;20.30;99.90
37460;DHT22;23318;50.966;5.284;2023-08-21T02:02:17;20.40;99.90
37460;DHT22;23318;50.966;5.284;2023-08-21T02:04:43;20.40;99.90
37460;DHT22;23318;50.966;5.284;2023-08-21T02:07:08;20.50;99.90
37460;DHT22;23318;50.966;5.284;2023-08-21T02:09:34;20.50;99.90
37460;DHT22;23318;50.966;5.284;2023-08-21T02:12:00;20.40;99.90
37460;DHT22;23318;50.966;5.284;2023-08-21T02:14:25;20.30;99.90
37460;DHT22;23318;50.966;5.284;2023-08-21T02:16:51;19.60;99.90
37460;DHT22;23318;50.966;5.284;2023-08-21T02:19:17;19.30;99.90
37460;DHT22;23318;50.966;5.284;2023-08-21T02:21:42;19.30;99.90
37460;DHT22;23318;50.966;5.284;2023-08-21T02:24:08;19.60;99.90
37460;DHT22;23318;50.966;5.284;2023-08-21T02:26:34;19.50;99.90
37460;DHT22;23318;50.966;5.284;2023-08-21T02:28:59;19.10;99.90
37460;DHT22;23318;50.966;5.284;2023-08-21T02:31:25;18.90;99.90
37460;DHT22;23318;50.966;5.284;2023-08-21T02:33:51;19.00;99.90
37460;DHT22;23318;50.966;5.284;2023-08-21T02:36:16;19.50;99.90
37460;DHT22;23318;50.966;5.284;2023-08-21T02:38:42;19.50;99.90
37460;DHT22;23318;50.966;5.284;2023-08-21T02:41:08;19.10;99.90
37460;DHT22;23318;50.966;5.284;2023-08-21T02:43:34;19.10;99.90
37460;DHT22;23318;50.966;5.284;2023-08-21T02:46:00;19.20;99.90
37460;DHT22;23318;50.966;5.284;2023-08-21T02:48:25;19.50;99.90
37460;DHT22;23318;50.966;5.284;2023-08-21T02:50:51;19.80;99.90
37460;DHT22;23318;50.966;5.284;2023-08-21T02:53:17;19.90;99.90
37460;DHT22;23318;50.966;5.284;2023-08-21T02:55:42;19.80;99.90
37460;DHT22;23318;50.966;5.284;2023-08-21T02:58:08;19.70;99.90
37460;DHT22;23318;50.966;5.284;2023-08-21T03:00:34;19.70;99.90
37460;DHT22;23318;50.966;5.284;2023-08-21T03:03:00;19.60;99.90
37460;DHT22;23318;50.966;5.284;2023-08-21T03:05:26;19.10;99.90
37460;DHT22;23318;50.966;5.284;2023-08-21T03:07:54;18.80;99.90
37460;DHT22;23318;50.966;5.284;2023-08-21T03:10:20;19.10;99.90
37460;DHT22;23318;50.966;5.284;2023-08-21T03:12:48;19.30;99.90
37460;DHT22;23318;50.966;5.284;2023-08-21T03:15:14;19.30;99.90
37460;DHT22;23318;50.966;5.284;2023-08-21T03:17:39;19.30;99.90
37460;DHT22;23318;50.966;5.284;2023-08-21T03:20:07;19.20;99.90
37460;DHT22;23318;50.966;5.284;2023-08-21T03:22:32;19.10;99.90
37460;DHT22;23318;50.966;5.284;2023-08-21T03:24:58;19.20;99.90
37460;DHT22;23318;50.966;5.284;2023-08-21T03:27:24;19.30;99.90
37460;DHT22;23318;50.966;5.284;2023-08-21T03:29:50;19.40;99.90
37460;DHT22;23318;50.966;5.284;2023-08-21T03:32:16;19.30;99.90
37460;DHT22;23318;50.966;5.284;2023-08-21T03:34:42;19.20;99.90
37460;DHT22;23318;50.966;5.284;2023-08-21T03:37:08;19.10;99.90
37460;DHT22;23318;50.966;5.284;2023-08-21T03:39:34;18.80;99.90
37460;DHT22;23318;50.966;5.284;2023-08-21T03:41:59;18.00;99.90
37460;DHT22;23318;50.966;5.284;2023-08-21T03:44:25;18.00;99.90
37460;DHT22;23318;50.966;5.284;2023-08-21T03:46:51;18.40;99.90
37460;DHT22;23318;50.966;5.284;2023-08-21T03:49:16;18.60;99.90
37460;DHT22;23318;50.966;5.284;2023-08-21T03:51:42;18.30;99.90
37460;DHT22;23318;50.966;5.284;2023-08-21T03:54:08;18.30;99.90
37460;DHT22;23318;50.966;5.284;2023-08-21T03:56:34;18.60;99.90
37460;DHT22;23318;50.966;5.284;2023-08-21T03:58:59;18.60;99.90
37460;DHT22;23318;50.966;5.284;2023-08-21T04:01:25;18.40;99.90
37460;DHT22;23318;50.966;5.284;2023-08-21T04:03:51;18.00;99.90
37460;DHT22;23318;50.966;5.284;2023-08-21T04:06:16;18.30;99.90
37460;DHT22;23318;50.966;5.284;2023-08-21T04:08:42;18.40;99.90
37460;DHT22;23318;50.966;5.284;2023-08-21T04:11:08;18.40;99.90
37460;DHT22;23318;50.966;5.284;2023-08-21T04:13:33;18.50;99.90
37460;DHT22;23318;50.966;5.284;2023-08-21T04:15:59;18.60;99.90
37460;DHT22;23318;50.966;5.284;2023-08-21T04:18:24;18.40;99.90
37460;DHT22;23318;50.966;5.284;2023-08-21T04:20:50;18.50;99.90
37460;DHT22;23318;50.966;5.284;2023-08-21T04:23:16;18.60;99.90
37460;DHT22;23318;50.966;5.284;2023-08-21T04:25:41;18.50;99.90
37460;DHT22;23318;50.966;5.284;2023-08-21T04:28:08;18.60;99.90
37460;DHT22;23318;50.966;5.284;2023-08-21T04:30:34;18.70;99.90
37460;DHT22;23318;50.966;5.284;2023-08-21T04:33:00;18.60;99.90
37460;DHT22;23318;50.966;5.284;2023-08-21T04:35:26;18.40;99.90
37460;DHT22;23318;50.966;5.284;2023-08-21T04:37:51;18.20;99.90
37460;DHT22;23318;50.966;5.284;2023-08-21T04:40:17;18.20;99.90
37460;DHT22;23318;50.966;5.284;2023-08-21T04:42:46;18.40;99.90
37460;DHT22;23318;50.966;5.284;2023-08-21T04:45:11;18.50;99.90
37460;DHT22;23318;50.966;5.284;2023-08-21T04:47:37;18.50;99.90
37460;DHT22;23318;50.966;5.284;2023-08-21T04:50:03;18.50;99.90
37460;DHT22;23318;50.966;5.284;2023-08-21T04:52:29;18.40;99.90
37460;DHT22;23318;50.966;5.284;2023-08-21T04:54:55;18.50;99.90
37460;DHT22;23318;50.966;5.284;2023-08-21T04:57:21;18.50;99.90
37460;DHT22;23318;50.966;5.284;2023-08-21T04:59:47;18.50;99.90
37460;DHT22;23318;50.966;5.284;2023-08-21T05:02:13;18.40;99.90
37460;DHT22;23318;50.966;5.284;2023-08-21T05:04:39;18.40;99.90
37460;DHT22;23318;50.966;5.284;2023-08-21T05:07:05;18.30;99.90
37460;DHT22;23318;50.966;5.284;2023-08-21T05:09:31;17.90;99.90
37460;DHT22;23318;50.966;5.284;2023-08-21T05:11:57;18.10;99.90
37460;DHT22;23318;50.966;5.284;2023-08-21T05:14:23;18.30;99.90
37460;DHT22;23318;50.966;5.284;2023-08-21T05:16:49;18.50;99.90
37460;DHT22;23318;50.966;5.284;2023-08-21T05:19:16;18.70;99.90
37460;DHT22;23318;50.966;5.284;2023-08-21T05:21:42;18.70;99.90
37460;DHT22;23318;50.966;5.284;2023-08-21T05:24:07;18.70;99.90
37460;DHT22;23318;50.966;5.284;2023-08-21T05:26:35;18.20;99.90
37460;DHT22;23318;50.966;5.284;2023-08-21T05:29:00;17.90;99.90
37460;DHT22;23318;50.966;5.284;2023-08-21T05:31:26;18.10;99.90
37460;DHT22;23318;50.966;5.284;2023-08-21T05:33:52;18.40;99.90
37460;DHT22;23318;50.966;5.284;2023-08-21T05:36:17;18.30;99.90
37460;DHT22;23318;50.966;5.284;2023-08-21T05:38:43;18.20;99.90
37460;DHT22;23318;50.966;5.284;2023-08-21T05:41:08;18.60;99.90
37460;DHT22;23318;50.966;5.284;2023-08-21T05:43:34;18.90;99.90
37460;DHT22;23318;50.966;5.284;2023-08-21T05:46:00;19.00;99.90
37460;DHT22;23318;50.966;5.284;2023-08-21T05:48:25;19.10;99.90
37460;DHT22;23318;50.966;5.284;2023-08-21T05:50:52;19.20;99.90
37460;DHT22;23318;50.966;5.284;2023-08-21T05:53:18;19.00;99.90
37460;DHT22;23318;50.966;5.284;2023-08-21T05:55:44;19.10;99.90
37460;DHT22;23318;50.966;5.284;2023-08-21T05:58:10;19.40;99.90
37460;DHT22;23318;50.966;5.284;2023-08-21T06:00:38;19.70;99.90
37460;DHT22;23318;50.966;5.284;2023-08-21T06:03:04;20.00;99.90
37460;DHT22;23318;50.966;5.284;2023-08-21T06:05:30;20.10;99.90
37460;DHT22;23318;50.966;5.284;2023-08-21T06:07:56;20.10;99.90
37460;DHT22;23318;50.966;5.284;2023-08-21T06:10:21;19.70;99.90
37460;DHT22;23318;50.966;5.284;2023-08-21T06:12:47;19.70;99.90
37460;DHT22;23318;50.966;5.284;2023-08-21T06:15:13;19.80;99.90
37460;DHT22;23318;50.966;5.284;2023-08-21T06:17:39;19.70;99.90
37460;DHT22;23318;50.966;5.284;2023-08-21T06:20:06;19.80;99.90
37460;DHT22;23318;50.966;5.284;2023-08-21T06:22:34;19.90;99.90
37460;DHT22;23318;50.966;5.284;2023-08-21T06:25:00;19.90;99.90
37460;DHT22;23318;50.966;5.284;2023-08-21T06:27:26;20.10;99.90
37460;DHT22;23318;50.966;5.284;2023-08-21T06:29:51;20.40;99.90
37460;DHT22;23318;50.966;5.284;2023-08-21T06:32:17;20.50;99.90
37460;DHT22;23318;50.966;5.284;2023-08-21T06:34:42;20.60;99.90
37460;DHT22;23318;50.966;5.284;2023-08-21T06:37:08;20.70;99.90
37460;DHT22;23318;50.966;5.284;2023-08-21T06:39:34;20.80;99.90
37460;DHT22;23318;50.966;5.284;2023-08-21T06:42:00;20.70;99.90
37460;DHT22;23318;50.966;5.284;2023-08-21T06:44:26;21.10;99.90
37460;DHT22;23318;50.966;5.284;2023-08-21T06:46:52;21.40;99.90
37460;DHT22;23318;50.966;5.284;2023-08-21T06:49:18;21.10;99.90
37460;DHT22;23318;50.966;5.284;2023-08-21T06:51:44;21.30;99.90
37460;DHT22;23318;50.966;5.284;2023-08-21T06:54:10;21.40;99.90
37460;DHT22;23318;50.966;5.284;2023-08-21T06:56:35;21.50;99.90
37460;DHT22;23318;50.966;5.284;2023-08-21T06:59:01;21.40;99.90
37460;DHT22;23318;50.966;5.284;2023-08-21T07:01:28;21.50;99.90
37460;DHT22;23318;50.966;5.284;2023-08-21T07:03:53;21.70;99.90
37460;DHT22;23318;50.966;5.284;2023-08-21T07:06:19;21.80;99.90
37460;DHT22;23318;50.966;5.284;2023-08-21T07:08:45;21.60;99.90
37460;DHT22;23318;50.966;5.284;2023-08-21T07:11:10;21.60;99.90
37460;DHT22;23318;50.966;5.284;2023-08-21T07:13:38;21.20;99.90
37460;DHT22;23318;50.966;5.284;2023-08-21T07:16:04;21.30;99.90
37460;DHT22;23318;50.966;5.284;2023-08-21T07:18:34;21.40;99.90
37460;DHT22;23318;50.966;5.284;2023-08-21T07:21:01;21.40;99.90
37460;DHT22;23318;50.966;5.284;2023-08-21T07:23:27;21.70;99.90
37460;DHT22;23318;50.966;5.284;2023-08-21T07:25:53;21.80;99.90
37460;DHT22;23318;50.966;5.284;2023-08-21T07:28:18;22.20;99.90
37460;DHT22;23318;50.966;5.284;2023-08-21T07:30:44;22.10;99.90
37460;DHT22;23318;50.966;5.284;2023-08-21T07:33:09;22.00;99.90
37460;DHT22;23318;50.966;5.284;2023-08-21T07:35:35;22.40;99.90
37460;DHT22;23318;50.966;5.284;2023-08-21T07:38:02;22.50;99.90
37460;DHT22;23318;50.966;5.284;2023-08-21T07:40:27;22.70;99.90
37460;DHT22;23318;50.966;5.284;2023-08-21T07:42:53;22.90;99.90
37460;DHT22;23318;50.966;5.284;2023-08-21T07:45:19;22.80;99.90
37460;DHT22;23318;50.966;5.284;2023-08-21T07:47:45;22.90;99.90
37460;DHT22;23318;50.966;5.284;2023-08-21T07:50:10;22.80;99.90
37460;DHT22;23318;50.966;5.284;2023-08-21T07:52:36;22.80;99.90
37460;DHT22;23318;50.966;5.284;2023-08-21T07:55:03;23.00;99.90
37460;DHT22;23318;50.966;5.284;2023-08-21T07:57:29;23.00;99.90
37460;DHT22;23318;50.966;5.284;2023-08-21T07:59:55;23.30;99.90
37460;DHT22;23318;50.966;5.284;2023-08-21T08:02:21;23.50;99.90
37460;DHT22;23318;50.966;5.284;2023-08-21T08:04:47;23.70;99.90
37460;DHT22;23318;50.966;5.284;2023-08-21T08:07:12;23.60;99.90
37460;DHT22;23318;50.966;5.284;2023-08-21T08:09:39;23.60;99.90
37460;DHT22;23318;50.966;5.284;2023-08-21T08:12:05;23.70;99.90
37460;DHT22;23318;50.966;5.284;2023-08-21T08:14:31;23.80;99.90
37460;DHT22;23318;50.966;5.284;2023-08-21T08:16:56;24.00;99.90
37460;DHT22;23318;50.966;5.284;2023-08-21T08:19:22;24.20;99.90
37460;DHT22;23318;50.966;5.284;2023-08-21T08:21:48;24.20;99.90
37460;DHT22;23318;50.966;5.284;2023-08-21T08:24:13;24.20;99.90
37460;DHT22;23318;50.966;5.284;2023-08-21T08:26:39;24.40;99.90
37460;DHT22;23318;50.966;5.284;2023-08-21T08:29:06;24.50;99.90
37460;DHT22;23318;50.966;5.284;2023-08-21T08:31:31;24.80;99.90
37460;DHT22;23318;50.966;5.284;2023-08-21T08:33:57;24.80;99.90
37460;DHT22;23318;50.966;5.284;2023-08-21T08:36:23;24.70;99.90
37460;DHT22;23318;50.966;5.284;2023-08-21T08:38:48;24.70;99.90
37460;DHT22;23318;50.966;5.284;2023-08-21T08:41:25;24.80;99.90
37460;DHT22;23318;50.966;5.284;2023-08-21T08:43:59;25.10;99.90
37460;DHT22;23318;50.966;5.284;2023-08-21T08:46:28;25.40;99.90
37460;DHT22;23318;50.966;5.284;2023-08-21T08:48:56;25.30;99.90
37460;DHT22;23318;50.966;5.284;2023-08-21T08:51:28;25.40;99.90
37460;DHT22;23318;50.966;5.284;2023-08-21T08:53:57;25.50;99.90
37460;DHT22;23318;50.966;5.284;2023-08-21T08:56:23;25.60;99.90
37460;DHT22;23318;50.966;5.284;2023-08-21T08:58:49;25.70;99.90
37460;DHT22;23318;50.966;5.284;2023-08-21T09:01:15;26.00;99.90
37460;DHT22;23318;50.966;5.284;2023-08-21T09:03:41;26.10;99.70
37460;DHT22;23318;50.966;5.284;2023-08-21T09:06:06;26.10;99.50
37460;DHT22;23318;50.966;5.284;2023-08-21T09:08:32;26.20;98.90
37460;DHT22;23318;50.966;5.284;2023-08-21T09:11:01;26.20;99.00
37460;DHT22;23318;50.966;5.284;2023-08-21T09:13:28;26.30;99.60
37460;DHT22;23318;50.966;5.284;2023-08-21T09:15:56;26.10;99.40
37460;DHT22;23318;50.966;5.284;2023-08-21T09:18:23;26.20;99.40
37460;DHT22;23318;50.966;5.284;2023-08-21T09:20:48;26.00;99.60
37460;DHT22;23318;50.966;5.284;2023-08-21T09:23:18;26.00;99.90
37460;DHT22;23318;50.966;5.284;2023-08-21T09:25:45;26.10;99.50
37460;DHT22;23318;50.966;5.284;2023-08-21T09:28:18;26.00;99.60
37460;DHT22;23318;50.966;5.284;2023-08-21T09:30:53;25.90;99.70
37460;DHT22;23318;50.966;5.284;2023-08-21T09:33:21;25.70;99.90
37460;DHT22;23318;50.966;5.284;2023-08-21T09:35:47;25.50;99.50
37460;DHT22;23318;50.966;5.284;2023-08-21T09:38:13;25.70;99.50
37460;DHT22;23318;50.966;5.284;2023-08-21T09:40:43;26.00;99.50
37460;DHT22;23318;50.966;5.284;2023-08-21T09:43:11;26.30;99.50
37460;DHT22;23318;50.966;5.284;2023-08-21T09:45:39;26.10;99.50
37460;DHT22;23318;50.966;5.284;2023-08-21T09:48:05;25.70;99.90
37460;DHT22;23318;50.966;5.284;2023-08-21T09:50:32;26.00;99.60
37460;DHT22;23318;50.966;5.284;2023-08-21T09:52:59;26.30;99.40
37460;DHT22;23318;50.966;5.284;2023-08-21T09:55:25;26.50;99.40
37460;DHT22;23318;50.966;5.284;2023-08-21T09:57:59;26.40;99.20
37460;DHT22;23318;50.966;5.284;2023-08-21T10:00:30;26.30;99.60
37460;DHT22;23318;50.966;5.284;2023-08-21T10:03:00;26.30;99.30
37460;DHT22;23318;50.966;5.284;2023-08-21T10:05:28;26.60;99.40
37460;DHT22;23318;50.966;5.284;2023-08-21T10:07:55;26.70;99.30
37460;DHT22;23318;50.966;5.284;2023-08-21T10:10:21;26.90;99.30
37460;DHT22;23318;50.966;5.284;2023-08-21T10:12:50;26.60;99.10
37460;DHT22;23318;50.966;5.284;2023-08-21T10:15:16;26.60;99.30
37460;DHT22;23318;50.966;5.284;2023-08-21T10:17:43;27.00;99.10
37460;DHT22;23318;50.966;5.284;2023-08-21T10:20:09;27.00;98.70
37460;DHT22;23318;50.966;5.284;2023-08-21T10:22:45;27.10;98.80
37460;DHT22;23318;50.966;5.284;2023-08-21T10:25:22;27.10;98.70
37460;DHT22;23318;50.966;5.284;2023-08-21T10:27:56;26.80;98.80
37460;DHT22;23318;50.966;5.284;2023-08-21T10:30:24;26.70;98.70
37460;DHT22;23318;50.966;5.284;2023-08-21T10:32:54;27.10;98.80
37460;DHT22;23318;50.966;5.284;2023-08-21T10:35:22;27.20;98.30
37460;DHT22;23318;50.966;5.284;2023-08-21T10:40:37;26.80;98.90
37460;DHT22;23318;50.966;5.284;2023-08-21T10:43:03;27.40;98.30
37460;DHT22;23318;50.966;5.284;2023-08-21T10:45:30;27.50;98.00
37460;DHT22;23318;50.966;5.284;2023-08-21T10:47:57;28.40;97.40
37460;DHT22;23318;50.966;5.284;2023-08-21T10:50:23;29.60;96.70
37460;DHT22;23318;50.966;5.284;2023-08-21T10:52:52;31.30;95.80
37460;DHT22;23318;50.966;5.284;2023-08-21T10:55:18;33.10;94.50
37460;DHT22;23318;50.966;5.284;2023-08-21T10:57:46;33.50;93.30
37460;DHT22;23318;50.966;5.284;2023-08-21T11:00:14;33.30;93.20
37460;DHT22;23318;50.966;5.284;2023-08-21T11:02:42;33.30;93.00
37460;DHT22;23318;50.966;5.284;2023-08-21T11:05:08;34.10;93.00
37460;DHT22;23318;50.966;5.284;2023-08-21T11:07:52;34.30;92.40
37460;DHT22;23318;50.966;5.284;2023-08-21T11:10:22;34.30;92.30
37460;DHT22;23318;50.966;5.284;2023-08-21T11:12:49;32.20;92.90
37460;DHT22;23318;50.966;5.284;2023-08-21T11:15:16;34.30;92.70
37460;DHT22;23318;50.966;5.284;2023-08-21T11:17:42;36.10;91.30
37460;DHT22;23318;50.966;5.284;2023-08-21T11:20:08;36.20;91.10
37460;DHT22;23318;50.966;5.284;2023-08-21T11:22:33;36.20;91.10
37460;DHT22;23318;50.966;5.284;2023-08-21T11:24:59;35.30;91.50
37460;DHT22;23318;50.966;5.284;2023-08-21T11:27:25;36.10;91.10
37460;DHT22;23318;50.966;5.284;2023-08-21T11:29:51;35.40;90.90
37460;DHT22;23318;50.966;5.284;2023-08-21T11:32:22;32.80;91.90
37460;DHT22;23318;50.966;5.284;2023-08-21T11:34:55;31.90;92.60
37460;DHT22;23318;50.966;5.284;2023-08-21T11:37:26;33.30;91.90
37460;DHT22;23318;50.966;5.284;2023-08-21T11:39:56;33.80;91.60
37460;DHT22;23318;50.966;5.284;2023-08-21T11:42:31;35.10;91.20
37460;DHT22;23318;50.966;5.284;2023-08-21T11:44:57;35.00;90.90
37460;DHT22;23318;50.966;5.284;2023-08-21T11:47:23;34.70;90.70
37460;DHT22;23318;50.966;5.284;2023-08-21T11:49:55;35.30;90.30
37460;DHT22;23318;50.966;5.284;2023-08-21T11:52:22;36.00;90.70
37460;DHT22;23318;50.966;5.284;2023-08-21T11:54:53;36.90;89.50
37460;DHT22;23318;50.966;5.284;2023-08-21T11:57:19;37.90;89.00
37460;DHT22;23318;50.966;5.284;2023-08-21T11:59:55;38.30;88.30
37460;DHT22;23318;50.966;5.284;2023-08-21T12:02:25;37.00;88.30
37460;DHT22;23318;50.966;5.284;2023-08-21T12:04:55;34.70;90.10
37460;DHT22;23318;50.966;5.284;2023-08-21T12:07:26;35.90;89.70
37460;DHT22;23318;50.966;5.284;2023-08-21T12:09:51;36.60;89.10
37460;DHT22;23318;50.966;5.284;2023-08-21T12:12:17;35.10;89.40
37460;DHT22;23318;50.966;5.284;2023-08-21T12:14:43;34.30;90.40
37460;DHT22;23318;50.966;5.284;2023-08-21T12:17:09;34.20;90.20
37460;DHT22;23318;50.966;5.284;2023-08-21T12:19:35;37.10;87.50
37460;DHT22;23318;50.966;5.284;2023-08-21T12:22:00;38.60;86.40
37460;DHT22;23318;50.966;5.284;2023-08-21T12:24:26;39.60;85.50
37460;DHT22;23318;50.966;5.284;2023-08-21T12:26:51;39.70;85.30
37460;DHT22;23318;50.966;5.284;2023-08-21T12:29:17;39.60;84.10
37460;DHT22;23318;50.966;5.284;2023-08-21T12:31:43;37.60;85.90
37460;DHT22;23318;50.966;5.284;2023-08-21T12:34:09;35.70;86.20
37460;DHT22;23318;50.966;5.284;2023-08-21T12:36:37;34.40;87.00
37460;DHT22;23318;50.966;5.284;2023-08-21T12:39:04;34.10;89.30
37460;DHT22;23318;50.966;5.284;2023-08-21T12:41:30;35.20;89.10
37460;DHT22;23318;50.966;5.284;2023-08-21T12:43:55;36.70;86.70
37460;DHT22;23318;50.966;5.284;2023-08-21T12:46:21;35.60;87.30
37460;DHT22;23318;50.966;5.284;2023-08-21T12:48:47;37.00;87.10
37460;DHT22;23318;50.966;5.284;2023-08-21T12:51:13;37.40;85.80
37460;DHT22;23318;50.966;5.284;2023-08-21T12:53:39;37.60;85.40
37460;DHT22;23318;50.966;5.284;2023-08-21T12:56:04;36.00;86.60
37460;DHT22;23318;50.966;5.284;2023-08-21T12:58:30;34.70;87.60
37460;DHT22;23318;50.966;5.284;2023-08-21T13:00:56;35.40;87.30
37460;DHT22;23318;50.966;5.284;2023-08-21T13:03:22;35.60;87.70
37460;DHT22;23318;50.966;5.284;2023-08-21T13:05:47;35.80;86.10
37460;DHT22;23318;50.966;5.284;2023-08-21T13:08:13;34.80;87.20
37460;DHT22;23318;50.966;5.284;2023-08-21T13:10:39;33.90;88.20
37460;DHT22;23318;50.966;5.284;2023-08-21T13:13:05;33.50;88.70
37460;DHT22;23318;50.966;5.284;2023-08-21T13:15:31;35.00;88.20
37460;DHT22;23318;50.966;5.284;2023-08-21T13:17:57;36.30;87.00
37460;DHT22;23318;50.966;5.284;2023-08-21T13:20:23;37.70;84.80
37460;DHT22;23318;50.966;5.284;2023-08-21T13:22:52;39.40;84.60
37460;DHT22;23318;50.966;5.284;2023-08-21T13:25:19;40.80;82.70
37460;DHT22;23318;50.966;5.284;2023-08-21T13:27:45;40.60;82.00
37460;DHT22;23318;50.966;5.284;2023-08-21T13:30:12;40.60;82.00
37460;DHT22;23318;50.966;5.284;2023-08-21T13:32:38;41.50;81.40
37460;DHT22;23318;50.966;5.284;2023-08-21T13:35:04;41.90;81.10
37460;DHT22;23318;50.966;5.284;2023-08-21T13:37:32;41.70;80.30
37460;DHT22;23318;50.966;5.284;2023-08-21T13:39:58;41.70;80.10
37460;DHT22;23318;50.966;5.284;2023-08-21T13:42:25;41.70;80.00
37460;DHT22;23318;50.966;5.284;2023-08-21T13:44:56;42.00;78.70
37460;DHT22;23318;50.966;5.284;2023-08-21T13:47:22;41.40;78.10
37460;DHT22;23318;50.966;5.284;2023-08-21T13:49:48;37.30;79.90
37460;DHT22;23318;50.966;5.284;2023-08-21T13:52:14;35.40;83.10
37460;DHT22;23318;50.966;5.284;2023-08-21T13:54:39;37.90;81.40
37460;DHT22;23318;50.966;5.284;2023-08-21T13:57:05;38.90;79.50
37460;DHT22;23318;50.966;5.284;2023-08-21T13:59:30;39.00;78.60
37460;DHT22;23318;50.966;5.284;2023-08-21T14:01:56;38.80;78.90
37460;DHT22;23318;50.966;5.284;2023-08-21T14:04:21;37.40;79.40
37460;DHT22;23318;50.966;5.284;2023-08-21T14:06:47;36.40;80.80
37460;DHT22;23318;50.966;5.284;2023-08-21T14:09:13;35.30;81.50
37460;DHT22;23318;50.966;5.284;2023-08-21T14:11:38;34.90;83.20
37460;DHT22;23318;50.966;5.284;2023-08-21T14:14:04;35.30;83.20
37460;DHT22;23318;50.966;5.284;2023-08-21T14:16:30;34.40;82.70
37460;DHT22;23318;50.966;5.284;2023-08-21T14:18:55;33.50;84.40
37460;DHT22;23318;50.966;5.284;2023-08-21T14:21:21;34.80;85.10
37460;DHT22;23318;50.966;5.284;2023-08-21T14:23:47;34.10;84.90
37460;DHT22;23318;50.966;5.284;2023-08-21T14:26:12;35.10;83.80
37460;DHT22;23318;50.966;5.284;2023-08-21T14:28:38;36.90;83.80
37460;DHT22;23318;50.966;5.284;2023-08-21T14:31:03;38.70;82.40
37460;DHT22;23318;50.966;5.284;2023-08-21T14:33:29;38.60;81.20
37460;DHT22;23318;50.966;5.284;2023-08-21T14:35:55;35.50;82.30
37460;DHT22;23318;50.966;5.284;2023-08-21T14:38:22;34.80;83.20
37460;DHT22;23318;50.966;5.284;2023-08-21T14:40:48;34.10;84.20
37460;DHT22;23318;50.966;5.284;2023-08-21T14:43:14;35.60;83.10
37460;DHT22;23318;50.966;5.284;2023-08-21T14:45:40;35.90;82.10
37460;DHT22;23318;50.966;5.284;2023-08-21T14:48:06;37.30;81.90
37460;DHT22;23318;50.966;5.284;2023-08-21T14:50:31;38.90;80.30
37460;DHT22;23318;50.966;5.284;2023-08-21T14:52:57;40.10;79.80
37460;DHT22;23318;50.966;5.284;2023-08-21T14:55:22;39.60;78.80
37460;DHT22;23318;50.966;5.284;2023-08-21T14:57:48;36.80;79.30
37460;DHT22;23318;50.966;5.284;2023-08-21T15:00:14;38.60;79.90
37460;DHT22;23318;50.966;5.284;2023-08-21T15:02:42;40.90;78.50
37460;DHT22;23318;50.966;5.284;2023-08-21T15:05:08;41.00;77.50
37460;DHT22;23318;50.966;5.284;2023-08-21T15:07:34;41.30;77.60
37460;DHT22;23318;50.966;5.284;2023-08-21T15:10:00;41.70;78.20
37460;DHT22;23318;50.966;5.284;2023-08-21T15:12:26;41.30;77.50
37460;DHT22;23318;50.966;5.284;2023-08-21T15:14:52;39.90;77.20
37460;DHT22;23318;50.966;5.284;2023-08-21T15:17:18;37.40;78.70
37460;DHT22;23318;50.966;5.284;2023-08-21T15:19:44;38.70;77.70
37460;DHT22;23318;50.966;5.284;2023-08-21T15:22:09;38.40;78.00
37460;DHT22;23318;50.966;5.284;2023-08-21T15:24:35;37.00;79.70
37460;DHT22;23318;50.966;5.284;2023-08-21T15:27:00;34.90;79.40
37460;DHT22;23318;50.966;5.284;2023-08-21T15:29:26;35.10;82.20
37460;DHT22;23318;50.966;5.284;2023-08-21T15:31:52;35.90;81.10